Time;durP1;ratioP1;P1;durP2;ratioP2;P2;SDS_P1;SDS_P2;PMS_P1;PMS_P2;Temp;Humidity;BMP_temperature;BMP_pressure;BME280_temperature;BME280_humidity;BME280_pressure;Samples;Min_cycle;Max_cycle;Signal;HPM_P1;HPM_P2
2022/08/01 00:01:16;;;;;;;1.40;1.30;;;26.80;48.50;;;;;;5030023;28;20468;-66
2022/08/01 00:03:44;;;;;;;3.10;1.50;;;26.80;48.60;;;;;;5027031;28;20474;-66
2022/08/01 00:06:13;;;;;;;1.40;1.20;;;26.80;48.50;;;;;;5026583;28;20488;-66
2022/08/01 00:08:41;;;;;;;1.17;1.00;;;26.80;48.50;;;;;;5021786;28;20445;-68
2022/08/01 00:11:10;;;;;;;1.33;1.20;;;26.80;48.60;;;;;;5028142;28;20464;-66
2022/08/01 00:13:38;;;;;;;1.40;1.30;;;26.80;48.60;;;;;;5029554;28;20437;-66
2022/08/01 00:16:07;;;;;;;1.40;1.30;;;26.80;48.70;;;;;;5020394;28;20491;-65
2022/08/01 00:18:36;;;;;;;1.80;1.50;;;26.80;48.60;;;;;;5028847;28;20803;-65
2022/08/01 00:21:05;;;;;;;3.30;1.23;;;26.80;48.60;;;;;;5023894;28;20481;-66
2022/08/01 00:23:33;;;;;;;1.80;1.50;;;26.80;48.60;;;;;;5023404;28;20436;-64
2022/08/01 00:26:01;;;;;;;1.67;1.57;;;26.80;48.70;;;;;;5026163;28;20545;-66
2022/08/01 00:28:30;;;;;;;1.37;1.27;;;26.80;48.80;;;;;;5025983;28;20845;-66
2022/08/01 00:30:59;;;;;;;1.30;1.20;;;26.80;48.80;;;;;;5028347;28;21002;-66
2022/08/01 00:33:27;;;;;;;1.53;1.20;;;26.80;48.90;;;;;;5023355;28;20452;-65
2022/08/01 00:35:55;;;;;;;1.23;1.10;;;26.80;48.80;;;;;;5029532;28;20504;-66
2022/08/01 00:38:23;;;;;;;1.50;1.40;;;26.70;48.80;;;;;;5030631;28;20428;-67
2022/08/01 00:40:53;;;;;;;2.03;1.40;;;26.80;48.90;;;;;;5020446;28;20468;-66
2022/08/01 00:43:21;;;;;;;1.50;1.40;;;26.70;49.10;;;;;;5031270;28;20798;-66
2022/08/01 00:45:51;;;;;;;2.13;1.60;;;26.70;49.00;;;;;;5023842;28;21035;-65
2022/08/01 00:48:19;;;;;;;1.30;1.20;;;26.70;49.10;;;;;;5013548;28;20468;-66
2022/08/01 00:50:47;;;;;;;1.20;1.10;;;26.70;49.10;;;;;;5024971;28;20469;-66
2022/08/01 00:53:16;;;;;;;1.20;1.10;;;26.70;49.10;;;;;;5014334;28;20429;-65
2022/08/01 00:55:47;;;;;;;1.43;1.33;;;26.70;49.20;;;;;;5018588;28;20976;-66
2022/08/01 00:58:15;;;;;;;1.00;0.90;;;26.70;49.10;;;;;;5024301;28;20437;-66
2022/08/01 01:00:45;;;;;;;1.30;1.13;;;26.70;49.10;;;;;;5037897;28;20460;-66
2022/08/01 01:03:26;;;;;;;1.73;1.63;;;26.70;49.10;;;;;;5030765;28;20917;-66
2022/08/01 01:06:31;;;;;;;2.00;1.30;;;26.70;49.10;;;;;;5019801;28;20547;-66
2022/08/01 01:09:24;;;;;;;1.80;1.33;;;26.70;49.10;;;;;;5031692;28;20444;-67
2022/08/01 01:12:07;;;;;;;1.60;1.50;;;26.70;49.10;;;;;;5019389;28;20464;-66
2022/08/01 01:14:54;;;;;;;1.43;0.97;;;26.70;49.20;;;;;;5014260;28;20448;-66
2022/08/01 01:17:28;;;;;;;1.13;1.03;;;26.70;49.20;;;;;;5028079;28;21008;-66
2022/08/01 01:20:19;;;;;;;1.20;1.10;;;26.70;49.40;;;;;;5025196;28;21074;-65
2022/08/01 01:22:58;;;;;;;1.77;1.10;;;26.70;49.50;;;;;;5029267;28;20503;-66
2022/08/01 01:25:55;;;;;;;1.03;0.93;;;26.70;49.40;;;;;;5027003;28;20503;-67
2022/08/01 01:28:34;;;;;;;2.47;1.47;;;26.70;49.40;;;;;;5024155;28;20496;-66
2022/08/01 01:31:07;;;;;;;1.43;1.33;;;26.70;49.50;;;;;;5031888;28;20467;-66
2022/08/01 01:33:41;;;;;;;1.50;1.40;;;26.70;49.70;;;;;;5012981;28;20982;-66
2022/08/01 01:36:17;;;;;;;1.53;1.43;;;26.70;49.70;;;;;;5027789;28;21008;-64
2022/08/01 01:38:47;;;;;;;1.93;1.13;;;26.70;49.70;;;;;;5032032;28;20428;-66
2022/08/01 01:41:18;;;;;;;1.30;1.20;;;26.70;49.70;;;;;;5028522;28;20842;-65
2022/08/01 01:43:47;;;;;;;1.33;1.10;;;26.70;49.60;;;;;;5032444;28;20517;-65
2022/08/01 01:46:22;;;;;;;1.23;1.13;;;26.70;49.70;;;;;;5029826;28;20464;-65
2022/08/01 01:48:51;;;;;;;1.47;1.00;;;26.70;49.70;;;;;;5019969;28;20446;-66
2022/08/01 01:51:23;;;;;;;1.60;1.23;;;26.70;49.70;;;;;;5031448;28;21003;-65
2022/08/01 01:53:53;;;;;;;1.40;1.30;;;26.70;49.60;;;;;;5024710;28;20499;-66
2022/08/01 01:56:22;;;;;;;1.30;1.20;;;26.70;49.60;;;;;;5027900;28;20464;-66
2022/08/01 01:58:53;;;;;;;1.33;1.20;;;26.70;49.60;;;;;;5018094;28;20468;-66
2022/08/01 02:01:25;;;;;;;1.00;1.00;;;26.70;49.70;;;;;;5028477;28;20517;-66
2022/08/01 02:04:14;;;;;;;1.80;1.53;;;26.60;49.60;;;;;;5016321;28;20487;-66
2022/08/01 02:06:44;;;;;;;1.43;1.10;;;26.70;49.70;;;;;;5023503;28;20471;-65
2022/08/01 02:09:14;;;;;;;1.37;1.27;;;26.60;49.60;;;;;;5017716;28;20853;-65
2022/08/01 02:11:44;;;;;;;1.13;1.03;;;26.70;49.70;;;;;;5020637;28;20887;-66
2022/08/01 02:14:35;;;;;;;1.10;1.00;;;26.60;49.50;;;;;;5030961;28;20954;-66
2022/08/01 02:17:05;;;;;;;0.97;0.97;;;26.70;49.70;;;;;;5026940;28;20432;-66
2022/08/01 02:19:34;;;;;;;1.10;1.00;;;26.60;49.60;;;;;;5025276;28;20469;-65
2022/08/01 02:22:10;;;;;;;1.13;0.90;;;26.70;49.60;;;;;;5025532;28;21163;-66
2022/08/01 02:24:42;;;;;;;1.30;1.13;;;26.60;50.80;;;;;;5021011;28;20444;-66
2022/08/01 02:27:13;;;;;;;1.43;1.33;;;26.70;49.70;;;;;;5031536;28;20979;-66
2022/08/01 02:29:45;;;;;;;1.27;1.17;;;26.60;49.60;;;;;;5025902;28;20973;-65
2022/08/01 02:32:21;;;;;;;1.27;1.17;;;26.60;49.70;;;;;;5030989;28;20988;-66
2022/08/01 02:34:51;;;;;;;2.70;1.40;;;26.60;49.60;;;;;;5012948;28;20486;-66
2022/08/01 02:37:21;;;;;;;1.47;1.10;;;26.60;50.70;;;;;;5027671;28;20429;-66
2022/08/01 02:39:53;;;;;;;1.80;1.30;;;26.60;49.60;;;;;;5027217;28;21047;-65
2022/08/01 02:42:25;;;;;;;0.90;0.90;;;26.60;49.50;;;;;;5018764;28;20492;-66
2022/08/01 02:44:55;;;;;;;1.27;1.17;;;26.60;49.60;;;;;;5018245;28;20526;-65
2022/08/01 02:47:28;;;;;;;1.23;1.13;;;26.60;49.50;;;;;;5023727;28;20529;-65
2022/08/01 02:49:57;;;;;;;1.10;0.97;;;26.60;49.50;;;;;;5024326;28;20468;-66
2022/08/01 02:52:27;;;;;;;1.20;1.10;;;26.60;49.60;;;;;;5015857;28;20468;-66
2022/08/01 02:54:57;;;;;;;1.10;1.00;;;26.60;49.60;;;;;;5027514;28;20949;-66
2022/08/01 02:57:27;;;;;;;1.17;1.07;;;26.60;49.70;;;;;;5024895;28;20473;-66
2022/08/01 03:00:16;;;;;;;1.40;1.13;;;26.60;49.70;;;;;;5028627;28;20492;-66
2022/08/01 03:02:50;;;;;;;1.27;1.17;;;26.60;49.60;;;;;;5021094;28;20888;-65
2022/08/01 03:05:19;;;;;;;1.27;1.17;;;26.60;49.50;;;;;;5029076;28;20471;-65
2022/08/01 03:07:47;;;;;;;1.97;1.30;;;26.60;49.60;;;;;;5019422;28;20465;-66
2022/08/01 03:10:17;;;;;;;1.13;1.03;;;26.60;49.50;;;;;;5011498;28;20519;-66
2022/08/01 03:12:47;;;;;;;0.90;0.90;;;26.60;49.60;;;;;;5007897;28;20428;-66
2022/08/01 03:15:17;;;;;;;1.40;1.30;;;26.60;49.50;;;;;;5025182;28;20479;-66
2022/08/01 03:17:49;;;;;;;1.37;1.20;;;26.60;49.70;;;;;;5010900;28;20499;-65
2022/08/01 03:20:19;;;;;;;1.00;1.00;;;26.50;49.50;;;;;;5023260;28;20997;-66
2022/08/01 03:22:51;;;;;;;1.67;1.50;;;26.60;49.60;;;;;;5034848;28;20503;-66
2022/08/01 03:25:19;;;;;;;1.23;1.13;;;26.50;49.70;;;;;;5026428;28;20451;-66
2022/08/01 03:27:55;;;;;;;1.33;1.20;;;26.60;49.60;;;;;;5030652;28;20464;-66
2022/08/01 03:30:25;;;;;;;1.40;1.30;;;26.50;49.60;;;;;;5034290;28;20463;-66
2022/08/01 03:32:55;;;;;;;1.37;1.20;;;26.50;49.60;;;;;;5030337;28;20481;-65
2022/08/01 03:35:27;;;;;;;1.23;1.13;;;26.60;49.70;;;;;;5023528;28;20473;-66
2022/08/01 03:37:57;;;;;;;1.20;1.10;;;26.60;49.90;;;;;;5012550;28;20429;-65
2022/08/01 03:40:49;;;;;;;1.37;1.27;;;26.60;49.70;;;;;;5020213;28;20909;-66
2022/08/01 03:43:21;;;;;;;1.43;1.07;;;26.50;49.60;;;;;;5026978;28;20455;-66
2022/08/01 03:45:52;;;;;;;1.23;1.13;;;26.50;49.70;;;;;;5033800;28;20491;-66
2022/08/01 03:48:28;;;;;;;1.90;1.80;;;26.50;49.70;;;;;;5025791;28;20486;-65
2022/08/01 03:50:59;;;;;;;1.10;1.00;;;26.50;49.70;;;;;;5021251;28;20973;-65
2022/08/01 03:53:31;;;;;;;1.40;1.27;;;26.50;50.90;;;;;;5025484;28;20988;-65
2022/08/01 03:56:01;;;;;;;1.30;1.20;;;26.50;49.70;;;;;;5022288;28;20507;-65
2022/08/01 03:58:30;;;;;;;1.23;1.13;;;26.50;49.70;;;;;;5030851;28;20437;-66
2022/08/01 04:00:59;;;;;;;1.20;1.10;;;26.50;49.70;;;;;;5033523;28;20873;-65
2022/08/01 04:03:29;;;;;;;1.13;1.03;;;26.50;49.70;;;;;;5005747;28;20567;-65
2022/08/01 04:05:57;;;;;;;1.40;1.30;;;26.50;49.80;;;;;;5025229;28;20483;-66
2022/08/01 04:08:35;;;;;;;1.10;1.00;;;26.50;49.70;;;;;;5031724;28;20460;-65
2022/08/01 04:11:03;;;;;;;1.33;1.23;;;26.50;49.70;;;;;;5013036;28;20465;-66
2022/08/01 04:13:32;;;;;;;1.73;1.10;;;26.50;49.70;;;;;;5019835;28;20956;-66
2022/08/01 04:16:05;;;;;;;1.17;1.07;;;26.50;49.70;;;;;;5028006;28;20472;-65
2022/08/01 04:18:34;;;;;;;1.30;1.20;;;26.50;49.80;;;;;;5024666;28;20437;-65
2022/08/01 04:21:02;;;;;;;1.57;1.47;;;26.50;49.80;;;;;;5028400;28;20530;-64
2022/08/01 04:23:33;;;;;;;1.30;1.20;;;26.50;49.70;;;;;;5027483;28;20486;-65
2022/08/01 04:26:04;;;;;;;1.53;1.30;;;26.50;49.70;;;;;;5029884;28;20845;-66
2022/08/01 04:28:34;;;;;;;1.20;1.10;;;26.50;49.80;;;;;;5023611;28;20464;-66
2022/08/01 04:31:06;;;;;;;1.10;1.00;;;26.40;49.60;;;;;;5026483;28;20472;-66
2022/08/01 04:33:36;;;;;;;1.37;1.27;;;26.40;49.70;;;;;;5019200;28;20449;-66
2022/08/01 04:36:06;;;;;;;1.53;1.43;;;26.40;49.70;;;;;;5021984;28;20472;-66
2022/08/01 04:38:36;;;;;;;1.23;1.13;;;26.40;50.80;;;;;;5033354;28;20771;-66
2022/08/01 04:41:06;;;;;;;1.10;1.00;;;26.40;49.70;;;;;;5018042;28;20464;-66
2022/08/01 04:43:37;;;;;;;1.17;1.07;;;26.40;49.70;;;;;;5033392;28;20428;-65
2022/08/01 04:46:07;;;;;;;1.47;1.00;;;26.40;49.70;;;;;;5028018;28;20966;-65
2022/08/01 04:48:38;;;;;;;1.63;1.27;;;26.40;49.70;;;;;;5032866;28;20456;-66
2022/08/01 04:51:14;;;;;;;2.53;1.00;;;26.40;49.70;;;;;;5028041;28;21047;-66
2022/08/01 04:53:43;;;;;;;2.07;1.63;;;26.40;49.70;;;;;;5030952;28;20435;-66
2022/08/01 04:56:12;;;;;;;1.93;1.10;;;26.40;49.80;;;;;;5029679;28;20468;-65
2022/08/01 04:58:41;;;;;;;1.27;1.20;;;26.40;49.90;;;;;;5029566;28;20432;-65
2022/08/01 05:01:10;;;;;;;1.40;1.30;;;26.40;49.90;;;;;;5025034;28;20469;-65
2022/08/01 05:03:40;;;;;;;1.23;1.13;;;26.40;49.80;;;;;;5013740;28;20796;-66
2022/08/01 05:06:08;;;;;;;1.20;1.10;;;26.40;49.80;;;;;;5027825;28;20472;-67
2022/08/01 05:08:36;;;;;;;1.10;1.00;;;26.40;49.80;;;;;;5021854;28;20471;-65
2022/08/01 05:11:05;;;;;;;1.20;1.10;;;26.40;49.90;;;;;;5021171;28;20452;-65
2022/08/01 05:13:33;;;;;;;1.67;1.57;;;26.40;49.80;;;;;;5015993;28;20437;-66
2022/08/01 05:16:03;;;;;;;1.53;1.43;;;26.40;49.80;;;;;;5017868;28;20460;-66
2022/08/01 05:18:31;;;;;;;1.33;1.23;;;26.40;49.90;;;;;;5022461;28;20438;-66
2022/08/01 05:21:01;;;;;;;1.70;1.60;;;26.40;49.90;;;;;;5011498;28;20473;-65
2022/08/01 05:23:30;;;;;;;2.07;1.20;;;26.40;49.90;;;;;;5029877;28;20432;-66
2022/08/01 05:26:10;;;;;;;1.40;1.30;;;26.40;49.90;;;;;;5012799;28;20457;-64
2022/08/01 05:28:41;;;;;;;1.20;1.10;;;26.40;49.90;;;;;;5020687;28;20982;-65
2022/08/01 05:31:10;;;;;;;2.90;1.83;;;26.40;49.90;;;;;;5013156;28;20472;-65
2022/08/01 05:33:38;;;;;;;2.57;1.30;;;26.30;49.80;;;;;;5011388;28;20495;-66
2022/08/01 05:36:07;;;;;;;1.23;1.10;;;26.30;49.90;;;;;;5011616;28;20492;-65
2022/08/01 05:38:35;;;;;;;1.80;1.57;;;26.30;49.80;;;;;;5020150;28;20495;-66
2022/08/01 05:41:04;;;;;;;1.57;1.37;;;26.30;49.90;;;;;;5010811;28;20477;-66
2022/08/01 05:43:32;;;;;;;1.20;1.10;;;26.40;50.00;;;;;;5022352;28;20432;-66
2022/08/01 05:46:01;;;;;;;1.13;1.03;;;26.30;49.90;;;;;;5017206;28;20472;-65
2022/08/01 05:48:30;;;;;;;1.70;1.53;;;26.30;49.90;;;;;;5011185;28;20990;-65
2022/08/01 05:50:58;;;;;;;1.80;1.67;;;26.30;49.90;;;;;;5014637;28;20469;-65
2022/08/01 05:53:27;;;;;;;2.13;1.67;;;26.30;50.00;;;;;;5017813;28;20436;-64
2022/08/01 05:55:56;;;;;;;1.67;1.40;;;26.30;50.10;;;;;;5016382;28;20468;-66
2022/08/01 05:58:24;;;;;;;2.40;1.43;;;26.30;50.00;;;;;;5020016;28;20437;-65
2022/08/01 06:00:52;;;;;;;2.10;1.67;;;26.30;50.00;;;;;;5016270;28;20456;-65
2022/08/01 06:03:21;;;;;;;1.67;1.57;;;26.30;50.00;;;;;;5024861;28;20483;-66
2022/08/01 06:05:49;;;;;;;1.73;1.63;;;26.30;50.00;;;;;;5009941;28;20473;-66
2022/08/01 06:08:17;;;;;;;2.57;2.13;;;26.30;50.00;;;;;;5020278;28;20435;-66
2022/08/01 06:10:46;;;;;;;1.83;1.27;;;26.30;50.10;;;;;;5015234;28;20827;-65
2022/08/01 06:13:14;;;;;;;1.60;1.50;;;26.30;50.10;;;;;;5012171;28;20487;-66
2022/08/01 06:15:42;;;;;;;1.87;1.77;;;26.30;50.10;;;;;;5017640;28;20473;-66
2022/08/01 06:18:10;;;;;;;1.90;1.80;;;26.30;50.20;;;;;;5023629;28;20428;-66
2022/08/01 06:20:39;;;;;;;1.80;1.70;;;26.30;50.10;;;;;;5013394;28;20479;-65
2022/08/01 06:23:07;;;;;;;1.70;1.60;;;26.30;50.10;;;;;;5011966;28;20441;-65
2022/08/01 06:25:57;;;;;;;2.80;2.13;;;26.30;50.20;;;;;;5008505;28;20460;-65
2022/08/01 06:28:25;;;;;;;1.87;1.77;;;26.20;50.10;;;;;;5019480;28;20440;-65
2022/08/01 06:30:54;;;;;;;2.40;1.80;;;26.30;50.10;;;;;;5025530;28;20469;-66
2022/08/01 06:33:22;;;;;;;2.43;2.23;;;26.30;50.20;;;;;;5012463;28;20870;-66
2022/08/01 06:35:50;;;;;;;1.93;1.80;;;26.20;50.10;;;;;;5010255;28;20484;-66
2022/08/01 06:38:18;;;;;;;2.37;2.10;;;26.20;50.10;;;;;;5012599;28;20437;-65
2022/08/01 06:40:46;;;;;;;2.53;1.80;;;26.20;50.10;;;;;;5009735;28;20457;-66
2022/08/01 06:43:16;;;;;;;1.70;1.60;;;26.30;50.10;;;;;;5011196;28;20522;-66
2022/08/01 06:45:46;;;;;;;1.87;1.77;;;26.30;50.20;;;;;;5018131;28;20468;-66
2022/08/01 06:48:15;;;;;;;2.50;2.30;;;26.30;50.20;;;;;;5028588;28;20451;-66
2022/08/01 06:50:43;;;;;;;1.90;1.80;;;26.20;50.20;;;;;;5019271;28;20916;-65
2022/08/01 06:53:11;;;;;;;1.90;1.80;;;26.20;50.20;;;;;;5031572;28;20460;-66
2022/08/01 06:55:39;;;;;;;2.10;1.83;;;26.20;50.10;;;;;;5029001;28;20476;-66
2022/08/01 06:58:07;;;;;;;1.47;1.37;;;26.20;50.20;;;;;;5031784;28;20440;-65
2022/08/01 07:00:37;;;;;;;1.70;1.60;;;26.20;50.20;;;;;;5034847;28;20887;-66
2022/08/01 07:03:05;;;;;;;1.60;1.50;;;26.20;50.20;;;;;;5016128;28;20449;-65
2022/08/01 07:05:33;;;;;;;1.73;1.60;;;26.20;50.20;;;;;;5022631;28;20842;-64
2022/08/01 07:08:01;;;;;;;3.03;1.70;;;26.20;50.30;;;;;;5025207;28;20774;-66
2022/08/01 07:10:29;;;;;;;1.53;1.43;;;26.20;50.20;;;;;;5030960;28;20833;-66
2022/08/01 07:12:57;;;;;;;1.53;1.43;;;26.20;50.20;;;;;;5027152;28;20456;-65
2022/08/01 07:15:26;;;;;;;1.57;1.47;;;26.20;50.20;;;;;;5024470;28;20559;-66
2022/08/01 07:17:56;;;;;;;1.70;1.60;;;26.20;50.20;;;;;;5027530;28;20493;-66
2022/08/01 07:20:24;;;;;;;2.03;1.50;;;26.20;50.20;;;;;;5027848;28;20459;-66
2022/08/01 07:22:53;;;;;;;1.90;1.80;;;26.20;50.30;;;;;;5016890;28;20460;-66
2022/08/01 07:25:23;;;;;;;2.00;1.63;;;26.20;50.30;;;;;;5022442;28;20464;-64
2022/08/01 07:27:51;;;;;;;1.80;1.70;;;26.20;50.20;;;;;;5023498;28;20505;-66
2022/08/01 07:30:19;;;;;;;1.70;1.60;;;26.20;50.30;;;;;;5028816;28;20514;-63
2022/08/01 07:32:47;;;;;;;1.97;1.87;;;26.20;50.20;;;;;;5018923;28;20942;-65
2022/08/01 07:35:17;;;;;;;2.20;2.10;;;26.20;50.20;;;;;;5023912;28;20471;-66
2022/08/01 07:37:45;;;;;;;1.97;1.87;;;26.20;50.40;;;;;;5025032;28;20795;-66
2022/08/01 07:40:17;;;;;;;2.10;2.00;;;26.20;50.30;;;;;;5021814;28;20480;-64
2022/08/01 07:42:46;;;;;;;2.07;1.80;;;26.10;50.20;;;;;;5020366;28;20443;-65
2022/08/01 07:45:15;;;;;;;1.40;1.30;;;26.10;50.20;;;;;;5029869;28;20462;-65
2022/08/01 07:47:43;;;;;;;1.93;1.73;;;26.10;50.20;;;;;;5012490;28;20479;-65
2022/08/01 07:50:12;;;;;;;2.20;1.80;;;26.20;50.30;;;;;;5021096;28;20470;-65
2022/08/01 07:52:41;;;;;;;1.70;1.57;;;26.20;50.50;;;;;;5021032;28;20432;-64
2022/08/01 07:55:11;;;;;;;1.80;1.70;;;26.20;50.30;;;;;;5022003;28;20465;-71
2022/08/01 07:57:43;;;;;;;1.93;1.83;;;26.20;50.50;;;;;;5025986;28;20907;-71
2022/08/01 08:00:13;;;;;;;2.00;1.90;;;26.20;50.40;;;;;;5026665;28;20452;-70
2022/08/01 08:02:41;;;;;;;2.57;1.43;;;26.10;50.50;;;;;;5027763;28;20444;-71
2022/08/01 08:05:10;;;;;;;2.30;1.80;;;26.20;50.70;;;;;;5024975;28;20459;-70
2022/08/01 08:07:38;;;;;;;2.97;2.20;;;26.10;50.50;;;;;;5032902;28;20424;-71
2022/08/01 08:10:09;;;;;;;2.33;2.13;;;26.20;50.80;;;;;;5013073;28;20521;-70
2022/08/01 08:12:37;;;;;;;1.77;1.67;;;26.10;50.70;;;;;;5025593;28;21211;-71
2022/08/01 08:15:06;;;;;;;2.00;1.80;;;26.10;50.60;;;;;;5020102;28;20518;-70
2022/08/01 08:17:35;;;;;;;5.00;2.60;;;26.20;50.50;;;;;;5023381;28;20445;-70
2022/08/01 08:20:05;;;;;;;2.90;1.80;;;26.10;52.30;;;;;;5019064;28;20792;-70
2022/08/01 08:22:37;;;;;;;2.43;2.10;;;26.10;51.00;;;;;;5027438;28;20437;-70
2022/08/01 08:25:08;;;;;;;3.40;2.37;;;26.10;51.00;;;;;;5028984;28;20472;-70
2022/08/01 08:27:36;;;;;;;2.87;2.07;;;26.20;50.90;;;;;;5031814;28;20868;-71
2022/08/01 08:30:08;;;;;;;2.67;2.30;;;26.10;50.90;;;;;;5026078;28;20539;-70
2022/08/01 08:32:36;;;;;;;2.23;2.07;;;26.10;50.70;;;;;;5024484;28;20448;-70
2022/08/01 08:35:05;;;;;;;2.10;1.93;;;26.10;50.80;;;;;;5022762;28;20472;-70
2022/08/01 08:37:34;;;;;;;2.73;2.40;;;26.20;50.80;;;;;;5039735;28;21017;-70
2022/08/01 08:40:09;;;;;;;2.93;2.60;;;26.20;50.90;;;;;;5025448;28;20515;-70
2022/08/01 08:42:40;;;;;;;2.53;2.33;;;26.20;50.80;;;;;;5033313;28;20898;-70
2022/08/01 08:45:10;;;;;;;2.47;2.27;;;26.10;50.90;;;;;;5021337;28;20559;-70
2022/08/01 08:47:40;;;;;;;1.97;1.80;;;26.10;50.80;;;;;;5016803;28;21029;-70
2022/08/01 08:50:08;;;;;;;3.93;2.83;;;26.10;50.70;;;;;;5028263;28;20468;-71
2022/08/01 08:52:39;;;;;;;2.43;2.00;;;26.10;50.90;;;;;;5026493;28;20464;-70
2022/08/01 08:55:10;;;;;;;2.30;2.10;;;26.10;50.80;;;;;;5024121;28;20470;-70
2022/08/01 08:57:41;;;;;;;2.33;2.13;;;26.10;50.60;;;;;;5029434;28;20440;-70
2022/08/01 09:00:11;;;;;;;3.23;2.10;;;26.10;50.70;;;;;;5025462;28;20468;-70
2022/08/01 09:02:42;;;;;;;2.50;2.30;;;26.10;50.80;;;;;;5011699;28;20440;-70
2022/08/01 09:05:11;;;;;;;2.23;2.03;;;26.10;50.80;;;;;;5012426;28;20553;-70
2022/08/01 09:07:46;;;;;;;3.70;2.50;;;26.10;50.80;;;;;;5019195;28;20423;-70
2022/08/01 09:10:15;;;;;;;2.90;2.70;;;26.10;51.00;;;;;;5021913;28;20468;-70
2022/08/01 09:13:10;;;;;;;2.53;2.33;;;26.10;50.90;;;;;;5026059;28;20425;-70
2022/08/01 09:15:43;;;;;;;3.40;2.83;;;26.10;51.00;;;;;;5031621;28;20456;-70
2022/08/01 09:18:27;;;;;;;2.53;2.33;;;26.10;51.00;;;;;;5027726;28;20444;-69
2022/08/01 09:21:14;;;;;;;2.87;2.67;;;26.10;51.00;;;;;;5014414;28;20472;-70
2022/08/01 09:23:45;;;;;;;2.87;2.67;;;26.10;50.80;;;;;;5023694;28;20458;-70
2022/08/01 09:26:31;;;;;;;2.90;2.60;;;26.10;51.00;;;;;;5011589;28;20975;-70
2022/08/01 09:29:04;;;;;;;2.40;2.20;;;26.10;51.00;;;;;;5002744;28;20477;-70
2022/08/01 09:31:41;;;;;;;2.77;2.50;;;26.10;50.90;;;;;;5029385;28;20463;-70
2022/08/01 09:34:15;;;;;;;2.80;2.17;;;26.10;50.80;;;;;;5017376;28;20491;-70
2022/08/01 09:36:51;;;;;;;2.60;2.40;;;26.10;50.80;;;;;;5021308;28;20527;-70
2022/08/01 09:39:23;;;;;;;3.30;3.00;;;26.10;50.80;;;;;;5011855;28;20432;-70
2022/08/01 09:41:53;;;;;;;2.77;2.57;;;26.10;50.80;;;;;;5031497;28;20455;-70
2022/08/01 09:44:39;;;;;;;2.17;2.07;;;26.10;50.90;;;;;;5024953;28;20441;-72
2022/08/01 09:47:10;;;;;;;2.80;2.60;;;26.10;50.80;;;;;;5018579;28;20463;-69
2022/08/01 09:49:43;;;;;;;3.03;2.83;;;26.10;51.20;;;;;;5013061;28;21053;-69
2022/08/01 09:52:21;;;;;;;2.83;2.63;;;26.10;51.30;;;;;;5021205;28;20464;-70
2022/08/01 09:54:55;;;;;;;2.80;2.60;;;26.10;51.00;;;;;;5024279;28;20555;-70
2022/08/01 09:57:26;;;;;;;3.07;2.80;;;26.10;51.10;;;;;;5027470;28;20471;-70
2022/08/01 09:59:55;;;;;;;2.80;2.60;;;26.00;51.10;;;;;;5013967;28;20841;-70
2022/08/01 10:02:30;;;;;;;3.30;2.80;;;26.00;51.10;;;;;;5017318;28;20429;-70
2022/08/01 10:04:59;;;;;;;2.47;2.00;;;26.10;51.20;;;;;;5018843;28;20550;-70
2022/08/01 10:07:35;;;;;;;3.37;3.07;;;26.00;51.20;;;;;;5017102;28;20441;-70
2022/08/01 10:10:13;;;;;;;2.50;2.30;;;26.00;51.10;;;;;;5020391;28;20555;-70
2022/08/01 10:12:44;;;;;;;2.10;1.90;;;26.00;51.10;;;;;;5030678;28;20850;-69
2022/08/01 10:15:16;;;;;;;3.30;3.00;;;26.00;51.00;;;;;;5015865;28;20477;-70
2022/08/01 10:17:53;;;;;;;2.23;2.03;;;26.00;51.40;;;;;;5008922;28;21052;-70
2022/08/01 10:20:26;;;;;;;2.73;2.53;;;26.00;51.10;;;;;;5024283;28;20467;-70
2022/08/01 10:23:00;;;;;;;2.43;2.23;;;26.00;51.20;;;;;;5028181;28;20467;-70
2022/08/01 10:25:39;;;;;;;2.00;1.90;;;26.00;51.10;;;;;;5014712;28;20474;-70
2022/08/01 10:28:16;;;;;;;2.10;2.00;;;26.00;51.20;;;;;;5033119;28;20799;-70
2022/08/01 10:30:47;;;;;;;2.50;2.30;;;26.00;51.10;;;;;;5017326;28;20472;-70
2022/08/01 10:33:18;;;;;;;3.10;2.30;;;26.00;51.30;;;;;;5013297;28;20445;-70
2022/08/01 10:36:06;;;;;;;2.20;2.10;;;26.00;51.10;;;;;;5010955;28;20766;-70
2022/08/01 10:38:36;;;;;;;3.27;3.07;;;26.00;51.30;;;;;;5016552;28;20448;-70
2022/08/01 10:41:05;;;;;;;3.23;2.93;;;26.00;51.40;;;;;;5009009;28;20473;-70
2022/08/01 10:43:37;;;;;;;2.90;2.70;;;26.00;51.30;;;;;;5028768;28;20427;-69
2022/08/01 10:46:06;;;;;;;3.20;2.17;;;26.00;51.30;;;;;;5020098;28;20527;-70
2022/08/01 10:48:43;;;;;;;2.90;2.60;;;26.00;51.20;;;;;;5013904;28;20453;-70
2022/08/01 10:51:12;;;;;;;2.43;2.23;;;26.00;51.10;;;;;;5024240;28;20468;-70
2022/08/01 10:53:51;;;;;;;2.40;2.20;;;26.00;51.00;;;;;;5013591;28;20927;-69
2022/08/01 10:56:22;;;;;;;2.10;2.00;;;26.00;51.10;;;;;;5018960;28;20492;-70
2022/08/01 10:59:03;;;;;;;2.47;2.30;;;26.00;51.00;;;;;;5025470;28;20455;-70
2022/08/01 11:01:39;;;;;;;2.67;2.47;;;26.00;51.10;;;;;;5024165;28;20459;-70
2022/08/01 11:04:14;;;;;;;2.60;2.40;;;26.00;51.10;;;;;;5021518;28;20436;-70
2022/08/01 11:07:05;;;;;;;2.77;2.57;;;26.00;51.20;;;;;;5016430;28;20560;-70
2022/08/01 11:09:42;;;;;;;2.10;2.00;;;26.00;51.20;;;;;;5016858;28;20526;-70
2022/08/01 11:12:19;;;;;;;2.20;2.10;;;26.00;51.00;;;;;;5016524;28;20552;-71
2022/08/01 11:15:28;;;;;;;2.57;2.37;;;26.00;51.00;;;;;;5017863;28;20514;-70
2022/08/01 11:18:02;;;;;;;2.40;2.20;;;26.00;50.90;;;;;;4931311;29;20441;-70
2022/08/01 11:20:33;;;;;;;2.10;2.00;;;26.00;50.70;;;;;;5008478;28;21040;-70
2022/08/01 11:23:19;;;;;;;2.00;1.90;;;26.00;50.70;;;;;;5015557;28;20924;-70
2022/08/01 11:26:13;;;;;;;2.67;1.83;;;26.10;50.70;;;;;;5020917;28;20459;-70
2022/08/01 11:28:47;;;;;;;2.33;2.23;;;26.00;50.80;;;;;;5006515;28;20431;-70
2022/08/01 11:31:36;;;;;;;2.30;2.10;;;26.00;50.80;;;;;;5022944;28;20468;-71
2022/08/01 11:34:05;;;;;;;2.27;2.17;;;26.00;50.60;;;;;;5018389;28;20451;-70
2022/08/01 11:36:33;;;;;;;2.17;2.07;;;26.00;50.50;;;;;;5020969;28;20982;-69
2022/08/01 11:39:22;;;;;;;2.90;2.70;;;26.00;50.50;;;;;;5020422;28;20467;-70
2022/08/01 11:41:53;;;;;;;2.20;2.10;;;26.00;50.50;;;;;;5027833;28;20639;-70
2022/08/01 11:44:25;;;;;;;2.57;2.37;;;26.00;51.70;;;;;;5022490;28;20435;-70
2022/08/01 11:46:59;;;;;;;2.70;2.50;;;26.10;50.30;;;;;;5024983;28;20981;-70
2022/08/01 11:49:32;;;;;;;2.53;2.33;;;26.00;50.10;;;;;;5023771;28;20504;-70
2022/08/01 11:52:03;;;;;;;2.43;2.23;;;26.00;50.20;;;;;;5016657;28;20456;-71
2022/08/01 11:54:35;;;;;;;2.90;2.23;;;26.10;50.20;;;;;;5023798;28;20476;-71
2022/08/01 11:57:06;;;;;;;2.93;2.73;;;26.00;49.70;;;;;;5024529;28;20445;-65
2022/08/01 11:59:45;;;;;;;3.05;2.85;;;26.00;49.10;;;;;;5022305;28;20435;-65
2022/08/01 12:02:42;;;;;;;3.00;2.80;;;25.90;49.10;;;;;;5026060;28;20200;-65
2022/08/01 12:05:14;;;;;;;2.80;2.60;;;25.90;49.10;;;;;;5025990;28;20495;-65
2022/08/01 12:07:44;;;;;;;2.47;2.30;;;26.00;49.40;;;;;;5019620;28;20435;-66
2022/08/01 12:10:15;;;;;;;2.33;2.13;;;26.00;49.50;;;;;;5022796;28;20472;-65
2022/08/01 12:12:45;;;;;;;2.60;2.40;;;26.00;49.50;;;;;;5012173;28;20559;-64
2022/08/01 12:15:14;;;;;;;2.90;2.70;;;26.00;49.70;;;;;;5020116;28;20535;-65
2022/08/01 12:17:45;;;;;;;2.50;2.30;;;26.00;49.50;;;;;;5015519;28;20930;-65
2022/08/01 12:20:26;;;;;;;2.77;2.57;;;26.00;49.50;;;;;;5021711;28;20507;-65
2022/08/01 12:22:58;;;;;;;2.80;2.60;;;26.00;49.40;;;;;;5022526;28;20433;-65
2022/08/01 12:25:26;;;;;;;3.87;2.83;;;26.00;49.50;;;;;;5013212;28;20464;-65
2022/08/01 12:27:56;;;;;;;3.10;2.47;;;26.10;49.40;;;;;;5022954;28;20433;-65
2022/08/01 12:30:26;;;;;;;2.90;2.70;;;26.10;49.30;;;;;;5026761;28;20457;-65
2022/08/01 12:32:56;;;;;;;2.80;2.60;;;26.10;49.10;;;;;;5019093;28;20515;-64
2022/08/01 12:35:25;;;;;;;2.80;2.40;;;26.00;49.10;;;;;;5021875;28;20477;-64
2022/08/01 12:37:56;;;;;;;2.43;2.10;;;26.10;49.20;;;;;;5031486;28;20781;-63
2022/08/01 12:40:26;;;;;;;2.67;2.47;;;26.10;50.50;;;;;;5029734;28;20519;-70
2022/08/01 12:42:57;;;;;;;2.40;2.30;;;26.10;49.40;;;;;;5028282;28;20435;-69
2022/08/01 12:45:27;;;;;;;2.43;2.23;;;26.10;49.30;;;;;;5010742;28;20462;-71
2022/08/01 12:47:59;;;;;;;2.87;2.57;;;26.10;49.10;;;;;;5028101;28;20449;-71
2022/08/01 12:50:30;;;;;;;2.40;2.20;;;26.10;49.00;;;;;;5012787;28;20468;-70
2022/08/01 12:52:59;;;;;;;2.40;2.20;;;26.10;49.00;;;;;;5026670;28;20503;-70
2022/08/01 12:55:28;;;;;;;2.10;2.00;;;26.10;49.10;;;;;;5013611;28;20465;-70
2022/08/01 12:58:06;;;;;;;2.53;2.33;;;26.10;48.90;;;;;;5033051;28;20436;-70
2022/08/01 13:00:38;;;;;;;2.20;2.10;;;26.10;49.00;;;;;;5030515;28;20994;-69
2022/08/01 13:03:10;;;;;;;2.17;2.07;;;26.10;48.70;;;;;;5033067;28;20428;-70
2022/08/01 13:05:45;;;;;;;2.80;2.60;;;26.10;48.90;;;;;;5021826;28;20469;-70
2022/08/01 13:08:15;;;;;;;2.40;2.20;;;26.10;48.70;;;;;;5014912;28;20934;-70
2022/08/01 13:10:43;;;;;;;2.27;2.07;;;26.10;48.80;;;;;;5010466;28;20477;-71
2022/08/01 13:13:13;;;;;;;4.70;2.90;;;26.10;48.60;;;;;;5016154;28;20498;-70